Time,TemperatureF,DewpointF,PressureIn,WindDirection,WindDirectionDegrees,WindSpeedMPH,WindSpeedGustMPH,Humidity,HourlyPrecipIn,Conditions,Clouds,dailyrainin,SoftwareType,DateUTC
2013-05-12 00:03:00,68.9,68.5,29.26,East,90,0.0,0.0,99,0.00,,,0.35,meteohub,2013-05-12 10:03:00,
2013-05-12 00:08:00,68.9,68.5,29.26,East,90,0.0,0.0,99,0.00,,,0.00,meteohub,2013-05-12 10:08:00,
2013-05-12 00:13:00,68.9,68.5,29.26,East,90,0.0,0.0,99,0.01,,,0.01,meteohub,2013-05-12 10:13:00,
2013-05-12 00:18:00,68.7,68.4,29.26,East,90,1.0,0.0,99,0.01,,,0.01,meteohub,2013-05-12 10:18:00,
2013-05-12 00:23:00,68.5,68.2,29.26,East,90,0.0,1.0,99,0.02,,,0.02,meteohub,2013-05-12 10:23:00,
2013-05-12 00:28:00,68.5,68.2,29.26,East,90,0.0,1.0,99,0.06,,,0.05,meteohub,2013-05-12 10:28:00,
2013-05-12 00:33:00,68.5,68.2,29.25,East,90,0.0,1.0,99,0.07,,,0.07,meteohub,2013-05-12 10:33:00,
2013-05-12 00:38:00,68.4,68.0,29.25,East,90,0.0,1.0,99,0.07,,,0.07,meteohub,2013-05-12 10:38:00,
2013-05-12 00:43:00,68.4,68.0,29.25,East,90,0.0,0.0,99,0.07,,,0.07,meteohub,2013-05-12 10:43:00,
2013-05-12 00:48:00,68.2,67.8,29.25,East,90,0.0,0.0,99,0.07,,,0.07,meteohub,2013-05-12 10:48:00,
2013-05-12 00:53:00,68.2,67.8,29.25,East,90,0.0,0.0,99,0.07,,,0.07,meteohub,2013-05-12 10:53:00,
2013-05-12 00:58:00,68.2,67.8,29.25,East,90,0.0,0.0,99,0.07,,,0.07,meteohub,2013-05-12 10:58:00,
2013-05-12 01:03:00,68.2,67.8,29.24,East,90,0.0,0.0,99,0.07,,,0.07,meteohub,2013-05-12 11:03:00,
2013-05-12 01:08:00,68.0,67.6,29.24,East,90,0.0,0.0,99,0.07,,,0.07,meteohub,2013-05-12 11:08:00,
2013-05-12 01:13:00,68.0,67.6,29.24,East,90,0.0,0.0,99,0.06,,,0.07,meteohub,2013-05-12 11:13:00,
2013-05-12 01:18:00,67.8,67.5,29.23,East,90,2.0,0.0,99,0.06,,,0.07,meteohub,2013-05-12 11:18:00,
2013-05-12 01:23:00,67.8,67.5,29.23,North,-999,-999.0,2.0,99,0.02,,,0.07,meteohub,2013-05-12 11:23:00,
2013-05-12 01:28:00,67.8,67.5,29.23,North,-999,-999.0,2.0,99,0.01,,,0.07,meteohub,2013-05-12 11:28:00,
2013-05-12 01:33:00,67.8,67.5,29.23,North,-999,-999.0,-999.0,99,0.00,,,0.07,meteohub,2013-05-12 11:33:00,
2013-05-12 01:38:00,67.8,67.5,29.23,North,-999,-999.0,-999.0,99,0.00,,,0.07,meteohub,2013-05-12 11:38:00,
2013-05-12 01:43:00,67.8,67.5,29.23,North,-999,-999.0,-999.0,99,0.00,,,0.07,meteohub,2013-05-12 11:43:00,
2013-05-12 01:48:00,67.8,67.5,29.22,North,-999,-999.0,-999.0,99,0.00,,,0.07,meteohub,2013-05-12 11:48:00,
2013-05-12 01:53:00,67.8,67.5,29.22,North,-999,-999.0,-999.0,99,0.00,,,0.07,meteohub,2013-05-12 11:53:00,
2013-05-12 01:58:00,67.8,67.5,29.22,North,-999,-999.0,-999.0,99,0.00,,,0.07,meteohub,2013-05-12 11:58:00,
2013-05-12 02:03:00,67.8,67.5,29.22,East,90,0.0,-999.0,99,0.00,,,0.07,meteohub,2013-05-12 12:03:00,
2013-05-12 02:08:00,67.8,67.5,29.22,East,90,0.0,2.0,99,0.00,,,0.07,meteohub,2013-05-12 12:08:00,
2013-05-12 02:13:00,67.6,67.3,29.22,East,90,0.0,2.0,99,0.00,,,0.07,meteohub,2013-05-12 12:13:00,
2013-05-12 02:18:00,67.6,67.3,29.22,East,90,0.0,2.0,99,0.00,,,0.07,meteohub,2013-05-12 12:18:00,
2013-05-12 02:23:00,67.5,67.1,29.22,East,90,0.0,0.0,99,0.00,,,0.07,meteohub,2013-05-12 12:23:00,
2013-05-12 02:28:00,67.5,67.1,29.22,East,90,0.0,0.0,99,0.00,,,0.07,meteohub,2013-05-12 12:28:00,
2013-05-12 02:33:00,67.5,67.1,29.22,East,90,0.0,0.0,99,0.00,,,0.07,meteohub,2013-05-12 12:33:00,
2013-05-12 02:38:00,67.5,67.1,29.22,East,90,0.0,0.0,99,0.00,,,0.07,meteohub,2013-05-12 12:38:00,
2013-05-12 02:43:00,67.5,67.1,29.22,East,90,0.0,0.0,99,0.00,,,0.07,meteohub,2013-05-12 12:43:00,
2013-05-12 02:48:00,67.5,67.1,29.21,East,90,0.0,0.0,99,0.00,,,0.07,meteohub,2013-05-12 12:48:00,
2013-05-12 02:53:00,67.6,67.3,29.21,East,90,0.0,0.0,99,0.00,,,0.07,meteohub,2013-05-12 12:53:00,
2013-05-12 02:58:00,67.6,67.3,29.21,East,90,0.0,0.0,99,0.00,,,0.07,meteohub,2013-05-12 12:58:00,
2013-05-12 03:03:00,67.6,67.3,29.21,NE,45,0.0,0.0,99,0.00,,,0.07,meteohub,2013-05-12 13:03:00,
2013-05-12 03:08:00,67.8,67.5,29.21,NE,45,0.0,2.0,99,0.00,,,0.07,meteohub,2013-05-12 13:08:00,
2013-05-12 03:13:00,67.8,67.5,29.21,NE,45,0.0,2.0,99,0.00,,,0.07,meteohub,2013-05-12 13:13:00,
2013-05-12 03:18:00,67.8,67.5,29.21,NE,45,0.0,2.0,99,0.00,,,0.07,meteohub,2013-05-12 13:18:00,
2013-05-12 03:23:00,67.8,67.5,29.21,NE,45,0.0,0.0,99,0.00,,,0.07,meteohub,2013-05-12 13:23:00,
2013-05-12 03:28:00,67.8,67.5,29.21,NE,45,0.0,0.0,99,0.00,,,0.07,meteohub,2013-05-12 13:28:00,
2013-05-12 03:33:00,68.0,67.6,29.21,NE,45,0.0,0.0,99,0.00,,,0.07,meteohub,2013-05-12 13:33:00,
2013-05-12 03:38:00,68.0,67.6,29.21,NE,45,0.0,0.0,99,0.00,,,0.07,meteohub,2013-05-12 13:38:00,
2013-05-12 03:43:00,68.0,67.6,29.21,NE,45,0.0,0.0,99,0.00,,,0.07,meteohub,2013-05-12 13:43:00,
2013-05-12 03:48:00,68.0,67.6,29.21,NE,45,0.0,0.0,99,0.00,,,0.07,meteohub,2013-05-12 13:48:00,
2013-05-12 03:53:00,68.0,67.6,29.21,NE,45,0.0,0.0,99,0.00,,,0.07,meteohub,2013-05-12 13:53:00,
2013-05-12 03:58:00,68.0,67.6,29.21,NE,45,0.0,0.0,99,0.00,,,0.07,meteohub,2013-05-12 13:58:00,
2013-05-12 04:03:00,68.0,67.6,29.21,NE,45,0.0,0.0,99,0.00,,,0.07,meteohub,2013-05-12 14:03:00,
2013-05-12 04:08:00,68.0,67.6,29.21,NE,45,0.0,0.0,99,0.00,,,0.07,meteohub,2013-05-12 14:08:00,
2013-05-12 04:13:00,68.0,67.6,29.21,NE,45,0.0,0.0,99,0.00,,,0.07,meteohub,2013-05-12 14:13:00,
2013-05-12 04:18:00,68.0,67.6,29.21,NE,45,0.0,0.0,99,0.00,,,0.07,meteohub,2013-05-12 14:18:00,
2013-05-12 04:23:00,68.0,67.6,29.21,NE,45,0.0,0.0,99,0.00,,,0.07,meteohub,2013-05-12 14:23:00,
2013-05-12 04:28:00,68.0,67.6,29.21,NE,45,0.0,0.0,99,0.00,,,0.07,meteohub,2013-05-12 14:28:00,
2013-05-12 04:33:00,68.0,67.6,29.21,NE,45,0.0,0.0,99,0.00,,,0.07,meteohub,2013-05-12 14:33:00,
2013-05-12 04:38:00,68.0,67.6,29.21,NE,45,0.0,0.0,99,0.00,,,0.07,meteohub,2013-05-12 14:38:00,
2013-05-12 04:43:00,68.2,67.8,29.21,NE,45,0.0,0.0,99,0.00,,,0.07,meteohub,2013-05-12 14:43:00,
2013-05-12 04:48:00,68.2,67.8,29.21,NE,45,0.0,0.0,99,0.00,,,0.07,meteohub,2013-05-12 14:48:00,
2013-05-12 04:53:00,68.2,67.8,29.21,NE,45,0.0,0.0,99,0.00,,,0.07,meteohub,2013-05-12 14:53:00,
2013-05-12 04:58:00,68.5,68.2,29.21,NE,45,0.0,0.0,99,0.00,,,0.07,meteohub,2013-05-12 14:58:00,
2013-05-12 05:03:00,68.4,68.0,29.22,NE,45,0.0,0.0,99,0.00,,,0.07,meteohub,2013-05-12 15:03:00,
2013-05-12 05:08:00,68.4,68.0,29.22,NE,45,0.0,0.0,99,0.00,,,0.07,meteohub,2013-05-12 15:08:00,
2013-05-12 05:13:00,68.5,68.2,29.22,NE,45,0.0,0.0,99,0.00,,,0.07,meteohub,2013-05-12 15:13:00,
2013-05-12 05:18:00,68.5,68.2,29.22,NE,45,0.0,0.0,99,0.00,,,0.07,meteohub,2013-05-12 15:18:00,
2013-05-12 05:23:00,68.5,68.2,29.22,NE,45,0.0,0.0,99,0.00,,,0.07,meteohub,2013-05-12 15:23:00,
2013-05-12 05:28:00,68.5,68.2,29.21,NE,45,0.0,0.0,99,0.00,,,0.07,meteohub,2013-05-12 15:28:00,
2013-05-12 05:33:00,68.5,68.2,29.22,NE,45,0.0,0.0,99,0.00,,,0.07,meteohub,2013-05-12 15:33:00,
2013-05-12 05:38:00,68.5,68.2,29.22,NE,45,0.0,0.0,99,0.00,,,0.07,meteohub,2013-05-12 15:38:00,
2013-05-12 05:43:00,68.5,68.2,29.22,NE,45,0.0,0.0,99,0.00,,,0.07,meteohub,2013-05-12 15:43:00,
2013-05-12 05:48:00,68.5,68.2,29.23,NE,45,0.0,0.0,99,0.00,,,0.07,meteohub,2013-05-12 15:48:00,
2013-05-12 05:53:00,68.5,68.2,29.23,NE,45,0.0,0.0,99,0.00,,,0.07,meteohub,2013-05-12 15:53:00,
2013-05-12 05:58:00,68.4,68.0,29.23,NE,45,0.0,0.0,99,0.00,,,0.07,meteohub,2013-05-12 15:58:00,
2013-05-12 06:03:00,68.4,68.0,29.22,NE,45,0.0,0.0,99,0.00,,,0.07,meteohub,2013-05-12 16:03:00,
2013-05-12 06:08:00,68.5,68.2,29.23,NE,45,0.0,0.0,99,0.00,,,0.07,meteohub,2013-05-12 16:08:00,
2013-05-12 06:13:00,68.5,68.2,29.23,NE,45,0.0,0.0,99,0.00,,,0.07,meteohub,2013-05-12 16:13:00,
2013-05-12 06:18:00,68.5,68.2,29.23,NE,45,0.0,0.0,99,0.00,,,0.07,meteohub,2013-05-12 16:18:00,
2013-05-12 06:23:00,68.7,68.4,29.23,NE,45,0.0,0.0,99,0.00,,,0.07,meteohub,2013-05-12 16:23:00,
2013-05-12 06:28:00,68.7,68.4,29.23,NE,45,0.0,2.0,99,0.00,,,0.07,meteohub,2013-05-12 16:28:00,
2013-05-12 06:33:00,69.1,68.7,29.23,NE,45,0.0,2.0,99,0.00,,,0.07,meteohub,2013-05-12 16:33:00,
2013-05-12 06:38:00,69.3,68.9,29.24,NE,45,0.0,2.0,99,0.00,,,0.07,meteohub,2013-05-12 16:38:00,
2013-05-12 06:43:00,69.6,69.3,29.24,NE,45,0.0,1.0,99,0.00,,,0.07,meteohub,2013-05-12 16:43:00,
2013-05-12 06:48:00,69.8,69.4,29.23,NE,45,0.0,1.0,99,0.00,,,0.07,meteohub,2013-05-12 16:48:00,
2013-05-12 06:53:00,70.0,69.6,29.24,NE,45,0.0,1.0,99,0.00,,,0.07,meteohub,2013-05-12 16:53:00,
2013-05-12 06:58:00,70.3,70.0,29.24,NE,45,2.0,0.0,99,0.00,,,0.07,meteohub,2013-05-12 16:58:00,
2013-05-12 07:03:00,70.7,70.3,29.24,NE,45,0.0,0.0,99,0.00,,,0.07,meteohub,2013-05-12 17:03:00,
2013-05-12 07:08:00,70.7,70.3,29.24,NE,45,2.0,2.0,99,0.00,,,0.07,meteohub,2013-05-12 17:08:00,
2013-05-12 07:13:00,70.7,70.3,29.24,NE,45,0.0,2.0,99,0.00,,,0.07,meteohub,2013-05-12 17:13:00,
2013-05-12 07:18:00,70.9,70.5,29.24,NE,45,0.0,2.0,99,0.00,,,0.07,meteohub,2013-05-12 17:18:00,
2013-05-12 07:23:00,71.1,70.7,29.25,NE,45,0.0,2.0,99,0.00,,,0.07,meteohub,2013-05-12 17:23:00,
2013-05-12 07:28:00,71.2,70.9,29.25,NE,45,2.0,2.0,99,0.00,,,0.07,meteohub,2013-05-12 17:28:00,
2013-05-12 07:33:00,71.4,71.1,29.25,NE,45,1.0,2.0,99,0.00,,,0.07,meteohub,2013-05-12 17:33:00,
2013-05-12 07:38:00,71.6,71.2,29.25,NE,45,0.0,2.0,99,0.00,,,0.07,meteohub,2013-05-12 17:38:00,
2013-05-12 07:43:00,71.6,71.2,29.25,NE,45,0.0,2.0,99,0.00,,,0.07,meteohub,2013-05-12 17:43:00,
2013-05-12 07:48:00,71.8,71.4,29.25,NE,45,0.0,2.0,99,0.00,,,0.07,meteohub,2013-05-12 17:48:00,
2013-05-12 07:54:00,72.0,71.6,29.25,East,90,0.0,1.0,99,0.00,,,0.07,meteohub,2013-05-12 17:54:00,
2013-05-12 07:59:00,72.0,71.6,29.25,East,90,2.0,2.0,99,0.00,,,0.07,meteohub,2013-05-12 17:59:00,
2013-05-12 08:04:00,72.1,71.8,29.25,SE,135,0.0,2.0,99,0.00,,,0.07,meteohub,2013-05-12 18:04:00,
2013-05-12 08:09:00,72.3,72.0,29.25,SE,135,2.0,2.0,99,0.00,,,0.07,meteohub,2013-05-12 18:09:00,
2013-05-12 08:14:00,72.7,72.3,29.25,SE,135,0.0,2.0,99,0.00,,,0.07,meteohub,2013-05-12 18:14:00,
2013-05-12 08:19:00,72.7,72.3,29.25,SE,135,0.0,2.0,99,0.00,,,0.07,meteohub,2013-05-12 18:19:00,
2013-05-12 08:24:00,72.5,72.1,29.25,SE,135,2.0,2.0,99,0.00,,,0.07,meteohub,2013-05-12 18:24:00,
2013-05-12 08:29:00,72.1,71.8,29.25,NE,45,3.0,3.0,99,0.00,,,0.07,meteohub,2013-05-12 18:29:00,
2013-05-12 08:34:00,71.8,71.4,29.25,NW,315,2.0,3.0,99,0.00,,,0.07,meteohub,2013-05-12 18:34:00,
2013-05-12 08:39:00,71.4,71.1,29.26,West,270,2.0,3.0,99,0.00,,,0.07,meteohub,2013-05-12 18:39:00,
2013-05-12 08:44:00,71.2,70.9,29.26,West,270,1.0,4.0,99,0.00,,,0.07,meteohub,2013-05-12 18:44:00,
2013-05-12 08:49:00,71.4,71.1,29.26,West,270,2.0,4.0,99,0.01,,,0.08,meteohub,2013-05-12 18:49:00,
2013-05-12 08:54:00,71.4,71.1,29.26,NW,315,3.0,3.0,99,0.01,,,0.08,meteohub,2013-05-12 18:54:00,
2013-05-12 08:59:00,71.2,70.9,29.26,NW,315,4.0,4.0,99,0.01,,,0.08,meteohub,2013-05-12 18:59:00,
2013-05-12 09:04:00,70.9,70.5,29.26,NW,315,3.0,4.0,99,0.01,,,0.08,meteohub,2013-05-12 19:04:00,
2013-05-12 09:09:00,70.5,70.2,29.26,West,270,4.0,4.0,99,0.01,,,0.08,meteohub,2013-05-12 19:09:00,
2013-05-12 09:14:00,70.3,70.0,29.26,NW,315,2.0,4.0,99,0.01,,,0.08,meteohub,2013-05-12 19:14:00,
2013-05-12 09:19:00,70.3,70.0,29.26,West,270,1.0,4.0,99,0.01,,,0.08,meteohub,2013-05-12 19:19:00,
2013-05-12 09:24:00,70.7,70.3,29.26,West,270,1.0,4.0,99,0.01,,,0.08,meteohub,2013-05-12 19:24:00,
2013-05-12 09:29:00,71.1,70.7,29.26,NW,315,2.0,4.0,99,0.01,,,0.08,meteohub,2013-05-12 19:29:00,
2013-05-12 09:34:00,71.2,70.9,29.26,NW,315,2.0,4.0,99,0.01,,,0.08,meteohub,2013-05-12 19:34:00,
2013-05-12 09:39:00,71.6,71.2,29.26,NW,315,2.0,4.0,99,0.01,,,0.08,meteohub,2013-05-12 19:39:00,
2013-05-12 09:44:00,72.1,71.8,29.25,NW,315,1.0,3.0,99,0.01,,,0.08,meteohub,2013-05-12 19:44:00,
2013-05-12 09:49:00,72.1,71.8,29.26,NW,315,3.0,3.0,99,0.00,,,0.08,meteohub,2013-05-12 19:49:00,
2013-05-12 09:54:00,72.3,72.0,29.26,NW,315,2.0,3.0,99,0.00,,,0.08,meteohub,2013-05-12 19:54:00,
2013-05-12 09:59:00,72.5,72.1,29.26,NW,315,2.0,3.0,99,0.00,,,0.08,meteohub,2013-05-12 19:59:00,
2013-05-12 10:04:00,73.0,72.7,29.26,NW,315,1.0,3.0,99,0.00,,,0.08,meteohub,2013-05-12 20:04:00,
2013-05-12 10:09:00,73.8,73.4,29.26,West,270,2.0,3.0,99,0.00,,,0.08,meteohub,2013-05-12 20:09:00,
2013-05-12 10:14:00,74.3,73.9,29.25,West,270,3.0,3.0,99,0.00,,,0.08,meteohub,2013-05-12 20:14:00,
2013-05-12 10:19:00,74.1,73.8,29.26,SW,225,2.0,3.0,99,0.00,,,0.08,meteohub,2013-05-12 20:19:00,
2013-05-12 10:24:00,74.5,74.1,29.26,West,270,4.0,4.0,99,0.00,,,0.08,meteohub,2013-05-12 20:24:00,
2013-05-12 10:29:00,75.0,74.7,29.26,West,270,2.0,4.0,99,0.00,,,0.08,meteohub,2013-05-12 20:29:00,
2013-05-12 10:34:00,75.4,75.0,29.25,West,270,2.0,4.0,99,0.00,,,0.08,meteohub,2013-05-12 20:34:00,
2013-05-12 10:39:00,76.3,75.9,29.25,West,270,4.0,4.0,99,0.00,,,0.08,meteohub,2013-05-12 20:39:00,
2013-05-12 10:44:00,76.1,75.2,29.24,West,270,4.0,4.0,97,0.00,,,0.08,meteohub,2013-05-12 20:44:00,
2013-05-12 10:49:00,76.1,74.8,29.24,West,270,4.0,4.0,96,0.00,,,0.08,meteohub,2013-05-12 20:49:00,
2013-05-12 10:54:00,75.9,75.0,29.25,West,270,3.0,4.0,97,0.00,,,0.08,meteohub,2013-05-12 20:54:00,
2013-05-12 10:59:00,75.7,74.1,29.24,North,0,3.0,4.0,95,0.00,,,0.08,meteohub,2013-05-12 20:59:00,
2013-05-12 11:04:00,76.1,74.5,29.24,West,270,0.0,4.0,95,0.00,,,0.08,meteohub,2013-05-12 21:04:00,
2013-05-12 11:09:00,76.1,73.9,29.24,West,270,2.0,3.0,93,0.00,,,0.08,meteohub,2013-05-12 21:09:00,
2013-05-12 11:14:00,76.1,73.9,29.24,NW,315,2.0,3.0,93,0.00,,,0.08,meteohub,2013-05-12 21:14:00,
2013-05-12 11:19:00,75.9,74.3,29.24,West,270,3.0,3.0,95,0.00,,,0.08,meteohub,2013-05-12 21:19:00,
2013-05-12 11:24:00,75.9,75.0,29.24,West,270,2.0,3.0,97,0.00,,,0.08,meteohub,2013-05-12 21:24:00,
2013-05-12 11:29:00,75.7,74.8,29.24,West,270,2.0,3.0,97,0.00,,,0.08,meteohub,2013-05-12 21:29:00,
2013-05-12 11:34:00,76.3,75.7,29.24,West,270,1.0,3.0,98,0.00,,,0.08,meteohub,2013-05-12 21:34:00,
2013-05-12 11:39:00,75.9,74.3,29.23,West,270,3.0,4.0,95,0.00,,,0.08,meteohub,2013-05-12 21:39:00,
2013-05-12 11:44:00,75.6,74.7,29.24,West,270,2.0,6.0,97,0.00,,,0.08,meteohub,2013-05-12 21:44:00,
2013-05-12 11:49:00,76.5,75.6,29.23,West,270,2.0,6.0,97,0.00,,,0.08,meteohub,2013-05-12 21:49:00,
2013-05-12 11:54:00,77.0,74.8,29.23,West,270,3.0,6.0,93,0.00,,,0.08,meteohub,2013-05-12 21:54:00,
2013-05-12 11:59:00,76.3,74.5,29.22,West,270,5.0,5.0,94,0.00,,,0.08,meteohub,2013-05-12 21:59:00,
2013-05-12 12:04:00,75.7,74.5,29.23,West,270,3.0,5.0,96,0.00,,,0.08,meteohub,2013-05-12 22:04:00,
2013-05-12 12:09:00,75.7,74.8,29.23,NW,315,1.0,5.0,97,0.00,,,0.08,meteohub,2013-05-12 22:09:00,
2013-05-12 12:14:00,76.1,75.2,29.22,SW,225,1.0,5.0,97,0.00,,,0.08,meteohub,2013-05-12 22:14:00,
2013-05-12 12:19:00,76.5,75.6,29.22,South,180,1.0,5.0,97,0.00,,,0.08,meteohub,2013-05-12 22:19:00,
2013-05-12 12:24:00,76.6,75.0,29.22,SE,135,1.0,3.0,95,0.00,,,0.08,meteohub,2013-05-12 22:24:00,
2013-05-12 12:29:00,76.5,74.7,29.22,NW,315,0.0,3.0,94,0.00,,,0.08,meteohub,2013-05-12 22:29:00,
2013-05-12 12:34:00,77.0,75.4,29.22,South,180,2.0,3.0,95,0.00,,,0.08,meteohub,2013-05-12 22:34:00,
2013-05-12 12:39:00,77.2,75.0,29.22,West,270,0.0,3.0,93,0.00,,,0.08,meteohub,2013-05-12 22:39:00,
2013-05-12 12:44:00,78.1,75.6,29.21,South,180,2.0,4.0,92,0.01,,,0.09,meteohub,2013-05-12 22:44:00,
2013-05-12 12:49:00,79.0,76.1,29.22,North,0,2.0,4.0,91,0.01,,,0.09,meteohub,2013-05-12 22:49:00,
2013-05-12 12:54:00,79.9,76.3,29.21,West,270,1.0,5.0,89,0.01,,,0.09,meteohub,2013-05-12 22:54:00,
2013-05-12 12:59:00,80.1,74.5,29.21,West,270,3.0,5.0,83,0.01,,,0.09,meteohub,2013-05-12 22:59:00,
2013-05-12 13:04:00,79.3,74.1,29.21,South,180,3.0,5.0,84,0.01,,,0.09,meteohub,2013-05-12 23:04:00,
2013-05-12 13:09:00,79.3,74.8,29.21,South,180,3.0,5.0,86,0.01,,,0.09,meteohub,2013-05-12 23:09:00,
2013-05-12 13:14:00,79.7,74.1,29.20,SE,135,4.0,5.0,83,0.01,,,0.09,meteohub,2013-05-12 23:14:00,
2013-05-12 13:19:00,79.9,73.9,29.21,SE,135,4.0,5.0,82,0.01,,,0.09,meteohub,2013-05-12 23:19:00,
2013-05-12 13:24:00,79.5,74.7,29.20,SE,135,4.0,4.0,85,0.01,,,0.09,meteohub,2013-05-12 23:24:00,
2013-05-12 13:29:00,79.9,74.3,29.19,SE,135,4.0,4.0,83,0.01,,,0.09,meteohub,2013-05-12 23:29:00,
2013-05-12 13:34:00,80.6,74.3,29.20,SE,135,7.0,7.0,81,0.01,,,0.09,meteohub,2013-05-12 23:34:00,
2013-05-12 13:39:00,81.1,75.2,29.19,West,270,1.0,4.0,82,0.01,,,0.09,meteohub,2013-05-12 23:39:00,
2013-05-12 13:44:00,81.3,74.8,29.19,West,270,2.0,7.0,81,0.00,,,0.09,meteohub,2013-05-12 23:44:00,
2013-05-12 13:49:00,81.5,74.7,29.19,SW,225,4.0,7.0,80,0.00,,,0.09,meteohub,2013-05-12 23:49:00,
2013-05-12 13:54:00,81.7,74.8,29.19,West,270,4.0,7.0,80,0.00,,,0.09,meteohub,2013-05-12 23:54:00,
2013-05-12 13:59:00,81.5,74.3,29.19,West,270,5.0,6.0,79,0.00,,,0.09,meteohub,2013-05-12 23:59:00,
2013-05-12 14:04:00,81.5,74.7,29.19,West,270,3.0,7.0,80,0.00,,,0.09,meteohub,2013-05-13 00:04:00,
2013-05-12 14:09:00,80.4,74.1,29.19,South,180,2.0,7.0,81,0.00,,,0.09,meteohub,2013-05-13 00:09:00,
2013-05-12 14:14:00,79.9,73.6,29.19,West,270,4.0,7.0,81,0.00,,,0.09,meteohub,2013-05-13 00:14:00,
2013-05-12 14:19:00,79.2,73.9,29.18,NE,45,0.0,4.0,84,0.00,,,0.09,meteohub,2013-05-13 00:19:00,
2013-05-12 14:24:00,78.8,73.9,29.18,South,180,2.0,4.0,85,0.00,,,0.09,meteohub,2013-05-13 00:24:00,
2013-05-12 14:29:00,78.6,73.8,29.18,West,270,2.0,4.0,85,0.00,,,0.09,meteohub,2013-05-13 00:29:00,
2013-05-12 14:34:00,78.1,74.3,29.18,North,0,3.0,3.0,88,0.00,,,0.09,meteohub,2013-05-13 00:34:00,
2013-05-12 14:39:00,77.9,74.1,29.18,NW,315,2.0,6.0,88,0.00,,,0.09,meteohub,2013-05-13 00:39:00,
2013-05-12 14:44:00,78.3,74.1,29.18,South,180,2.0,6.0,87,0.00,,,0.09,meteohub,2013-05-13 00:44:00,
2013-05-12 14:49:00,78.1,73.6,29.18,SW,225,3.0,6.0,86,0.00,,,0.09,meteohub,2013-05-13 00:49:00,
2013-05-12 14:54:00,78.1,73.6,29.18,South,180,2.0,4.0,86,0.00,,,0.09,meteohub,2013-05-13 00:54:00,
2013-05-12 14:59:00,78.1,73.6,29.18,SW,225,2.0,4.0,86,0.00,,,0.09,meteohub,2013-05-13 00:59:00,
2013-05-12 15:04:00,78.1,73.2,29.18,North,0,2.0,4.0,85,0.00,,,0.09,meteohub,2013-05-13 01:04:00,
2013-05-12 15:10:00,78.3,73.4,29.18,South,180,3.0,4.0,85,0.00,,,0.09,meteohub,2013-05-13 01:10:00,
2013-05-12 15:15:00,77.9,73.4,29.18,SW,225,2.0,4.0,86,0.00,,,0.09,meteohub,2013-05-13 01:15:00,
2013-05-12 15:20:00,77.7,73.6,29.18,SW,225,2.0,4.0,87,0.00,,,0.09,meteohub,2013-05-13 01:20:00,
2013-05-12 15:25:00,77.4,73.2,29.18,SW,225,2.0,3.0,87,0.00,,,0.09,meteohub,2013-05-13 01:25:00,
2013-05-12 15:30:00,76.3,72.5,29.17,NE,45,0.0,4.0,88,0.00,,,0.09,meteohub,2013-05-13 01:30:00,
2013-05-12 15:35:00,76.5,73.2,29.18,South,180,2.0,4.0,90,0.00,,,0.09,meteohub,2013-05-13 01:35:00,
2013-05-12 15:40:00,76.5,73.6,29.17,SE,135,2.0,4.0,91,0.00,,,0.09,meteohub,2013-05-13 01:40:00,
2013-05-12 15:45:00,76.3,73.8,29.17,NE,45,2.0,3.0,92,0.00,,,0.09,meteohub,2013-05-13 01:45:00,
2013-05-12 15:50:00,75.2,73.0,29.17,SW,225,3.0,3.0,93,0.00,,,0.09,meteohub,2013-05-13 01:50:00,
2013-05-12 15:55:00,74.5,72.7,29.17,SW,225,0.0,4.0,94,0.00,,,0.09,meteohub,2013-05-13 01:55:00,
2013-05-12 16:00:00,74.1,72.9,29.17,NW,315,0.0,4.0,96,0.00,,,0.09,meteohub,2013-05-13 02:00:00,
2013-05-12 16:05:00,73.6,73.0,29.17,West,270,2.0,4.0,98,0.00,,,0.09,meteohub,2013-05-13 02:05:00,
2013-05-12 16:10:00,73.4,73.0,29.17,West,270,4.0,4.0,99,0.00,,,0.09,meteohub,2013-05-13 02:10:00,
2013-05-12 16:15:00,73.2,72.9,29.17,NW,315,3.0,5.0,99,0.00,,,0.09,meteohub,2013-05-13 02:15:00,
2013-05-12 16:20:00,72.9,72.5,29.17,West,270,4.0,5.0,99,0.00,,,0.09,meteohub,2013-05-13 02:20:00,
2013-05-12 16:25:00,72.9,72.5,29.17,West,270,4.0,5.0,99,0.00,,,0.09,meteohub,2013-05-13 02:25:00,
2013-05-12 16:30:00,72.7,72.3,29.17,NW,315,1.0,4.0,99,0.00,,,0.09,meteohub,2013-05-13 02:30:00,
2013-05-12 16:35:00,72.5,72.1,29.17,West,270,1.0,4.0,99,0.00,,,0.09,meteohub,2013-05-13 02:35:00,
2013-05-12 16:40:00,72.5,72.1,29.17,West,270,2.0,4.0,99,0.00,,,0.09,meteohub,2013-05-13 02:40:00,
2013-05-12 16:45:00,72.5,72.1,29.17,West,270,2.0,4.0,99,0.00,,,0.09,meteohub,2013-05-13 02:45:00,
2013-05-12 16:50:00,72.3,72.0,29.17,NW,315,3.0,4.0,99,0.00,,,0.09,meteohub,2013-05-13 02:50:00,
2013-05-12 16:55:00,72.5,72.1,29.17,NW,315,3.0,4.0,99,0.00,,,0.09,meteohub,2013-05-13 02:55:00,
2013-05-12 17:00:00,72.1,71.8,29.18,NW,315,2.0,4.0,99,0.00,,,0.09,meteohub,2013-05-13 03:00:00,
2013-05-12 17:05:00,72.1,71.8,29.17,NW,315,3.0,4.0,99,0.00,,,0.09,meteohub,2013-05-13 03:05:00,
2013-05-12 17:10:00,72.0,71.6,29.18,NW,315,3.0,4.0,99,0.00,,,0.09,meteohub,2013-05-13 03:10:00,
2013-05-12 17:15:00,71.8,71.4,29.18,NW,315,2.0,3.0,99,0.00,,,0.09,meteohub,2013-05-13 03:15:00,
2013-05-12 17:20:00,71.6,71.2,29.18,West,270,4.0,4.0,99,0.00,,,0.09,meteohub,2013-05-13 03:20:00,
2013-05-12 17:25:00,71.8,71.4,29.18,West,270,2.0,4.0,99,0.00,,,0.09,meteohub,2013-05-13 03:25:00,
2013-05-12 17:30:00,71.8,71.4,29.17,NW,315,2.0,4.0,99,0.00,,,0.09,meteohub,2013-05-13 03:30:00,
2013-05-12 17:35:00,71.8,71.4,29.17,West,270,2.0,2.0,99,0.00,,,0.09,meteohub,2013-05-13 03:35:00,
2013-05-12 17:40:00,71.6,71.2,29.18,NW,315,1.0,2.0,99,0.00,,,0.09,meteohub,2013-05-13 03:40:00,
2013-05-12 17:45:00,71.6,71.2,29.18,West,270,2.0,2.0,99,0.00,,,0.09,meteohub,2013-05-13 03:45:00,
2013-05-12 17:50:00,71.6,71.2,29.18,West,270,0.0,3.0,99,0.00,,,0.09,meteohub,2013-05-13 03:50:00,
2013-05-12 17:55:00,71.6,71.2,29.18,NW,315,0.0,3.0,99,0.00,,,0.09,meteohub,2013-05-13 03:55:00,
2013-05-12 18:00:00,71.8,71.4,29.18,NW,315,0.0,3.0,99,0.00,,,0.09,meteohub,2013-05-13 04:00:00,
2013-05-12 18:01:00,71.8,71.4,29.18,NW,315,0.0,3.0,99,0.00,,,0.09,meteohub,2013-05-13 04:01:00,
2013-05-12 18:06:00,71.8,71.4,29.18,NW,315,1.0,2.0,99,0.00,,,0.09,meteohub,2013-05-13 04:06:00,
2013-05-12 18:11:00,71.8,71.4,29.18,NW,315,1.0,1.0,99,0.00,,,0.09,meteohub,2013-05-13 04:11:00,
2013-05-12 18:16:00,71.6,71.2,29.18,NW,315,0.0,1.0,99,0.00,,,0.09,meteohub,2013-05-13 04:16:00,
2013-05-12 18:21:00,71.4,71.1,29.19,NW,315,0.0,2.0,99,0.00,,,0.09,meteohub,2013-05-13 04:21:00,
2013-05-12 18:27:00,71.2,70.9,29.18,NW,315,0.0,2.0,99,0.02,,,0.09,meteohub,2013-05-13 04:27:00,
2013-05-12 18:32:00,71.1,70.7,29.18,NW,315,0.0,2.0,99,0.02,,,0.12,meteohub,2013-05-13 04:32:00,
2013-05-12 18:37:00,71.1,70.7,29.18,NW,315,0.0,0.0,99,0.02,,,0.12,meteohub,2013-05-13 04:37:00,
2013-05-12 18:42:00,70.9,70.5,29.18,NW,315,0.0,0.0,99,0.04,,,0.13,meteohub,2013-05-13 04:42:00,
2013-05-12 18:47:00,70.9,70.5,29.19,NW,315,0.0,0.0,99,0.04,,,0.13,meteohub,2013-05-13 04:47:00,
2013-05-12 18:52:00,70.9,70.5,29.19,West,270,1.0,0.0,99,0.04,,,0.13,meteohub,2013-05-13 04:52:00,
2013-05-12 18:57:00,70.9,70.5,29.19,NW,315,2.0,2.0,99,0.04,,,0.13,meteohub,2013-05-13 04:57:00,
2013-05-12 19:02:00,70.5,70.2,29.19,West,270,2.0,3.0,99,0.08,,,0.18,meteohub,2013-05-13 05:02:00,
2013-05-12 19:07:00,70.2,69.8,29.19,West,270,0.0,4.0,99,0.20,,,0.30,meteohub,2013-05-13 05:07:00,
2013-05-12 19:12:00,70.0,69.6,29.19,West,270,0.0,4.0,99,0.24,,,0.33,meteohub,2013-05-13 05:12:00,
2013-05-12 19:17:00,69.8,69.4,29.20,SE,135,1.0,4.0,99,0.30,,,0.39,meteohub,2013-05-13 05:17:00,
2013-05-12 19:22:00,69.8,69.4,29.20,East,90,0.0,1.0,99,0.35,,,0.45,meteohub,2013-05-13 05:22:00,
2013-05-12 19:27:00,69.8,69.4,29.20,East,90,0.0,1.0,99,0.37,,,0.48,meteohub,2013-05-13 05:27:00,
2013-05-12 19:32:00,69.8,69.4,29.20,East,90,0.0,1.0,99,0.41,,,0.53,meteohub,2013-05-13 05:32:00,
2013-05-12 19:37:00,69.6,69.3,29.21,East,90,0.0,1.0,99,0.43,,,0.54,meteohub,2013-05-13 05:37:00,
2013-05-12 19:42:00,69.6,69.3,29.21,East,90,0.0,1.0,99,0.44,,,0.57,meteohub,2013-05-13 05:42:00,
2013-05-12 19:47:00,69.6,69.3,29.21,East,90,0.0,1.0,99,0.48,,,0.61,meteohub,2013-05-13 05:47:00,
2013-05-12 19:52:00,69.6,69.3,29.21,East,90,0.0,0.0,99,0.48,,,0.61,meteohub,2013-05-13 05:52:00,
2013-05-12 19:57:00,69.6,69.3,29.21,East,90,0.0,0.0,99,0.50,,,0.64,meteohub,2013-05-13 05:57:00,
2013-05-12 20:02:00,69.6,69.3,29.22,West,270,2.0,0.0,99,0.45,,,0.66,meteohub,2013-05-13 06:02:00,
2013-05-12 20:07:00,69.6,69.3,29.21,SE,135,0.0,2.0,99,0.37,,,0.67,meteohub,2013-05-13 06:07:00,
2013-05-12 20:12:00,69.6,69.3,29.22,SE,135,2.0,2.0,99,0.35,,,0.71,meteohub,2013-05-13 06:12:00,
2013-05-12 20:17:00,69.6,69.3,29.21,East,90,0.0,2.0,99,0.32,,,0.72,meteohub,2013-05-13 06:17:00,
2013-05-12 20:22:00,69.6,69.3,29.21,SE,135,0.0,2.0,99,0.27,,,0.73,meteohub,2013-05-13 06:22:00,
2013-05-12 20:27:00,69.6,69.3,29.21,SE,135,0.0,2.0,99,0.25,,,0.74,meteohub,2013-05-13 06:27:00,
2013-05-12 20:32:00,69.6,69.3,29.22,NE,45,0.0,1.0,99,0.21,,,0.74,meteohub,2013-05-13 06:32:00,
2013-05-12 20:37:00,69.6,69.3,29.22,NE,45,0.0,1.0,99,0.20,,,0.76,meteohub,2013-05-13 06:37:00,
2013-05-12 20:42:00,69.4,69.1,29.22,NE,45,0.0,0.0,99,0.19,,,0.77,meteohub,2013-05-13 06:42:00,
2013-05-12 20:47:00,69.4,69.1,29.21,NE,45,0.0,0.0,99,0.15,,,0.77,meteohub,2013-05-13 06:47:00,
2013-05-12 20:52:00,69.4,69.1,29.22,NE,45,0.0,1.0,99,0.15,,,0.78,meteohub,2013-05-13 06:52:00,
2013-05-12 20:57:00,69.4,69.1,29.22,NE,45,0.0,1.0,99,0.17,,,0.80,meteohub,2013-05-13 06:57:00,
2013-05-12 21:02:00,69.3,68.9,29.22,NE,45,0.0,1.0,99,0.14,,,0.80,meteohub,2013-05-13 07:02:00,
2013-05-12 21:07:00,69.3,68.9,29.22,NE,45,0.0,0.0,99,0.13,,,0.81,meteohub,2013-05-13 07:07:00,
2013-05-12 21:12:00,69.3,68.9,29.22,NE,45,0.0,0.0,99,0.12,,,0.83,meteohub,2013-05-13 07:12:00,
2013-05-12 21:17:00,69.4,69.1,29.22,NE,45,0.0,0.0,99,0.11,,,0.83,meteohub,2013-05-13 07:17:00,
2013-05-12 21:22:00,69.4,69.1,29.23,NE,45,0.0,0.0,99,0.09,,,0.83,meteohub,2013-05-13 07:22:00,
2013-05-12 21:27:00,69.4,69.1,29.23,NE,45,0.0,0.0,99,0.08,,,0.83,meteohub,2013-05-13 07:27:00,
2013-05-12 21:32:00,69.4,69.1,29.22,NE,45,0.0,0.0,99,0.08,,,0.83,meteohub,2013-05-13 07:32:00,
2013-05-12 21:37:00,69.4,69.1,29.22,NE,45,0.0,0.0,99,0.07,,,0.83,meteohub,2013-05-13 07:37:00,
2013-05-12 21:42:00,69.4,69.1,29.23,NE,45,0.0,0.0,99,0.06,,,0.83,meteohub,2013-05-13 07:42:00,
2013-05-12 21:47:00,69.4,69.1,29.23,NE,45,0.0,0.0,99,0.05,,,0.83,meteohub,2013-05-13 07:47:00,
2013-05-12 21:52:00,69.4,69.1,29.23,NE,45,0.0,0.0,99,0.04,,,0.83,meteohub,2013-05-13 07:52:00,
2013-05-12 21:57:00,69.4,69.1,29.23,NE,45,0.0,0.0,99,0.02,,,0.83,meteohub,2013-05-13 07:57:00,
2013-05-12 22:02:00,69.4,69.1,29.23,NE,45,0.0,0.0,99,0.02,,,0.83,meteohub,2013-05-13 08:02:00,
2013-05-12 22:07:00,69.4,69.1,29.23,NE,45,0.0,0.0,99,0.01,,,0.83,meteohub,2013-05-13 08:07:00,
2013-05-12 22:12:00,69.3,68.9,29.23,NE,45,0.0,0.0,99,0.00,,,0.83,meteohub,2013-05-13 08:12:00,
2013-05-12 22:17:00,69.3,68.9,29.23,NE,45,0.0,0.0,99,0.00,,,0.83,meteohub,2013-05-13 08:17:00,
2013-05-12 22:22:00,69.3,68.9,29.23,NE,45,0.0,0.0,99,0.00,,,0.83,meteohub,2013-05-13 08:22:00,
2013-05-12 22:27:00,69.3,68.9,29.23,NE,45,0.0,0.0,99,0.00,,,0.83,meteohub,2013-05-13 08:27:00,
2013-05-12 22:32:00,69.1,68.7,29.24,NE,45,0.0,0.0,99,0.00,,,0.83,meteohub,2013-05-13 08:32:00,
2013-05-12 22:37:00,69.1,68.7,29.23,NE,45,0.0,0.0,99,0.00,,,0.83,meteohub,2013-05-13 08:37:00,
2013-05-12 22:42:00,69.1,68.7,29.23,NE,45,0.0,0.0,99,0.00,,,0.83,meteohub,2013-05-13 08:42:00,
2013-05-12 22:47:00,69.1,68.7,29.24,NE,45,0.0,0.0,99,0.00,,,0.83,meteohub,2013-05-13 08:47:00,
2013-05-12 22:52:00,69.1,68.7,29.23,NE,45,0.0,0.0,99,0.00,,,0.83,meteohub,2013-05-13 08:52:00,
2013-05-12 22:57:00,69.3,68.9,29.23,NE,45,0.0,0.0,99,0.00,,,0.83,meteohub,2013-05-13 08:57:00,
2013-05-12 23:02:00,69.3,68.9,29.24,NE,45,0.0,0.0,99,0.00,,,0.83,meteohub,2013-05-13 09:02:00,
2013-05-12 23:07:00,69.3,68.9,29.23,NE,45,0.0,0.0,99,0.00,,,0.83,meteohub,2013-05-13 09:07:00,
2013-05-12 23:12:00,69.1,68.7,29.23,NE,45,0.0,0.0,99,0.00,,,0.83,meteohub,2013-05-13 09:12:00,
2013-05-12 23:17:00,69.1,68.7,29.24,NE,45,0.0,0.0,99,0.00,,,0.83,meteohub,2013-05-13 09:17:00,
2013-05-12 23:22:00,69.1,68.7,29.23,NE,45,0.0,0.0,99,0.00,,,0.83,meteohub,2013-05-13 09:22:00,
2013-05-12 23:27:00,69.1,68.7,29.23,NE,45,1.0,0.0,99,0.00,,,0.83,meteohub,2013-05-13 09:27:00,
2013-05-12 23:32:00,69.1,68.7,29.23,NE,45,0.0,1.0,99,0.01,,,0.84,meteohub,2013-05-13 09:32:00,
2013-05-12 23:37:00,69.1,68.7,29.23,NE,45,0.0,1.0,99,0.01,,,0.84,meteohub,2013-05-13 09:37:00,
2013-05-12 23:42:00,69.1,68.7,29.23,NE,45,0.0,1.0,99,0.01,,,0.84,meteohub,2013-05-13 09:42:00,
2013-05-12 23:47:00,68.9,68.5,29.23,NE,45,0.0,0.0,99,0.02,,,0.85,meteohub,2013-05-13 09:47:00,
2013-05-12 23:52:00,68.9,68.5,29.23,NE,45,0.0,0.0,99,0.02,,,0.85,meteohub,2013-05-13 09:52:00,
2013-05-12 23:57:00,68.9,68.5,29.23,NE,45,0.0,0.0,99,0.02,,,0.85,meteohub,2013-05-13 09:57:00,